Information Last Ob Photographs Calibration Meteogram Network Table Neighbors Monthly Summaries Observation History Wind Roses Custom Wind Roses Data Calendar Satellite Cloud Product Download Terminal Aerodome Forecast

Most Recent Observation

This application displays the last observation received by the IEM from this site. The time stamp is in America/Chicago timezone.

Observation Local Time23 Feb 2024, 5:56 PM
Observation UTC Time2024-02-23T23:56:00Z
Air Temp [F]38
Maximum Air Temperature [F]49
Minimum Air Temperature [F]25
Dew Point [F]26
Wind DirectionN (350 degrees)
Wind Speed [knots]10
Altimeter [inches]29.92
Raw Observation/ProductKFOD 232356Z AUTO 35010G15KT 320V020 10SM FEW043 SCT110 03/M03 A2992 RMK AO2 SLP156 T00331033 10094 20033 51030
Cloud Layer 1: FEW (4300 feet)
Cloud Layer 2: SCT (11000 feet)

This data was provided by a JSON(P) webservice. You can find more JSON services.